Academia, Pennsylvania
Current Conditions -  °F | °C
As of 3:55 AM on Saturday 22 Nov 2014 (Local Time) from KUNV Reporting Station
Clear Clear  
Wind Chill:   Ceiling: Unl
Heat Index: 16°   Visibility: 10mi
Dew Point:   Wind: 5mph
Humidity: 76%   Direction: 210°SSW
Pressure: 30.41"   Gusts: NA
Location:  40.4991°N, 77.4687°W
Report Text: KUNV 220855Z AUTO 21004KT 10SM CLR M09/M13 A3041 RMK AO2 T10911126
Loading
Personal Weather Stations






























Interactive Weather Map New forecast layout! Learn more

10-Day Weather Forecast

Advertisements
Track Severe Weather on mobile